Time;durP1;ratioP1;P1;durP2;ratioP2;P2;SDS_P1;SDS_P2;PMS_P1;PMS_P2;Temp;Humidity;BMP_temperature;BMP_pressure;BME280_temperature;BME280_humidity;BME280_pressure;Samples;Min_cycle;Max_cycle;Signal;HPM_P1;HPM_P2
2021/12/20 00:02:09;;;;;;;5.15;3.22;;;;;;;;;;7397462;19;20133;-60
2021/12/20 00:04:37;;;;;;;5.28;3.17;;;;;;;;;;7396776;19;20082;-56
2021/12/20 00:07:05;;;;;;;7.00;3.90;;;;;;;;;;7397362;19;20015;-59
2021/12/20 00:09:32;;;;;;;4.05;2.85;;;;;;;;;;7397359;19;20010;-57
2021/12/20 00:11:59;;;;;;;7.20;4.05;;;;;;;;;;7397216;19;20014;-55
2021/12/20 00:14:26;;;;;;;5.93;3.95;;;;;;;;;;7393702;19;20040;-57
2021/12/20 00:16:54;;;;;;;4.97;3.42;;;;;;;;;;7396599;19;20010;-60
2021/12/20 00:19:23;;;;;;;5.18;3.47;;;;;;;;;;7394452;19;20011;-58
2021/12/20 00:21:50;;;;;;;9.38;4.30;;;;;;;;;;7396349;19;20085;-53
2021/12/20 00:24:19;;;;;;;4.78;2.95;;;;;;;;;;7396548;19;20022;-57
2021/12/20 00:26:46;;;;;;;7.75;2.72;;;;;;;;;;7396292;19;20498;-54
2021/12/20 00:29:14;;;;;;;4.25;2.92;;;;;;;;;;7396123;19;20010;-57
2021/12/20 00:31:42;;;;;;;8.02;3.72;;;;;;;;;;7394792;19;20015;-52
2021/12/20 00:34:09;;;;;;;8.18;3.75;;;;;;;;;;7395030;19;20028;-54
2021/12/20 00:36:37;;;;;;;16.63;3.70;;;;;;;;;;7396397;19;20014;-54
2021/12/20 00:41:50;;;;;;;4.07;2.45;;;;;;;;;;7395852;19;20046;-55
2021/12/20 00:44:17;;;;;;;5.30;2.20;;;;;;;;;;7395624;19;20011;-53
2021/12/20 00:46:54;;;;;;;5.15;2.25;;;;;;;;;;7394116;19;20022;-53
2021/12/20 00:49:21;;;;;;;3.67;2.40;;;;;;;;;;7396042;19;20054;-54
2021/12/20 00:51:48;;;;;;;5.18;2.53;;;;;;;;;;7395042;19;20015;-55
2021/12/20 00:54:15;;;;;;;3.22;2.25;;;;;;;;;;7397489;19;20082;-55
2021/12/20 00:56:43;;;;;;;3.47;2.58;;;;;;;;;;7394132;19;20024;-56
2021/12/20 00:59:10;;;;;;;2.50;1.73;;;;;;;;;;7394278;19;20011;-54
2021/12/20 01:01:37;;;;;;;2.80;1.80;;;;;;;;;;7394964;19;20077;-56
2021/12/20 01:04:05;;;;;;;4.85;2.40;;;;;;;;;;7395355;19;20086;-57
2021/12/20 01:06:34;;;;;;;3.72;1.92;;;;;;;;;;7396215;19;20013;-61
2021/12/20 01:09:02;;;;;;;2.38;1.80;;;;;;;;;;7394649;19;20017;-59
2021/12/20 01:11:37;;;;;;;3.78;2.58;;;;;;;;;;7394754;19;20011;-57
2021/12/20 01:14:05;;;;;;;2.78;1.63;;;;;;;;;;7394779;19;20506;-57
2021/12/20 01:16:33;;;;;;;6.40;2.50;;;;;;;;;;7395091;19;20088;-55
2021/12/20 01:19:01;;;;;;;3.90;2.25;;;;;;;;;;7394043;19;20546;-54
2021/12/20 01:21:30;;;;;;;5.18;2.10;;;;;;;;;;7394209;19;20018;-61
2021/12/20 01:23:57;;;;;;;4.35;2.28;;;;;;;;;;7394117;19;20038;-58
2021/12/20 01:26:25;;;;;;;2.55;2.08;;;;;;;;;;7392311;19;20034;-56
2021/12/20 01:28:53;;;;;;;4.20;2.15;;;;;;;;;;7393921;19;20010;-55
2021/12/20 01:31:21;;;;;;;2.38;1.77;;;;;;;;;;7393894;19;20042;-56
2021/12/20 01:33:49;;;;;;;4.00;2.00;;;;;;;;;;7394333;19;20015;-54
2021/12/20 01:36:17;;;;;;;3.38;1.98;;;;;;;;;;7391850;19;20014;-56
2021/12/20 01:38:45;;;;;;;2.83;2.03;;;;;;;;;;7394123;19;20015;-56
2021/12/20 01:41:13;;;;;;;4.07;2.10;;;;;;;;;;7393672;19;20007;-61
2021/12/20 01:43:41;;;;;;;3.75;1.92;;;;;;;;;;7393680;19;20035;-52
2021/12/20 01:46:09;;;;;;;2.70;1.80;;;;;;;;;;7392453;19;20024;-60
2021/12/20 01:48:38;;;;;;;4.45;1.70;;;;;;;;;;7393880;19;20014;-55
2021/12/20 01:53:38;;;;;;;4.50;2.22;;;;;;;;;;7395414;19;20013;-55
2021/12/20 01:56:08;;;;;;;3.88;1.88;;;;;;;;;;7392221;19;20021;-53
2021/12/20 01:58:36;;;;;;;2.03;1.58;;;;;;;;;;7393585;19;20021;-56
2021/12/20 02:03:43;;;;;;;2.33;1.63;;;;;;;;;;7391496;19;20018;-54
2021/12/20 02:06:21;;;;;;;1.80;1.45;;;;;;;;;;7393183;19;20010;-58
2021/12/20 02:08:49;;;;;;;2.88;1.55;;;;;;;;;;7394179;19;20025;-56
2021/12/20 02:11:18;;;;;;;4.78;2.05;;;;;;;;;;7391279;19;20018;-55
2021/12/20 02:13:46;;;;;;;2.75;1.90;;;;;;;;;;7392690;19;20086;-60
2021/12/20 02:16:13;;;;;;;2.63;1.85;;;;;;;;;;7390797;19;20070;-51
2021/12/20 02:18:41;;;;;;;1.95;1.50;;;;;;;;;;7393541;19;20054;-57
2021/12/20 02:21:09;;;;;;;5.10;2.20;;;;;;;;;;7392815;19;20015;-53
2021/12/20 02:23:37;;;;;;;3.90;1.77;;;;;;;;;;7392897;19;20010;-54
2021/12/20 02:26:05;;;;;;;3.83;1.90;;;;;;;;;;7392301;19;20471;-61
2021/12/20 02:28:38;;;;;;;2.95;1.98;;;;;;;;;;7390263;19;20348;-60
2021/12/20 02:39:00;;;;;;;3.58;2.17;;;;;;;;;;7391905;19;20007;-51
2021/12/20 02:41:32;;;;;;;2.95;2.00;;;;;;;;;;7391809;19;20014;-53
2021/12/20 02:44:06;;;;;;;5.55;2.00;;;;;;;;;;7391798;19;20356;-58
2021/12/20 02:49:07;;;;;;;3.42;1.80;;;;;;;;;;7391533;19;20006;-53
2021/12/20 02:51:37;;;;;;;5.88;2.60;;;;;;;;;;7390996;19;20011;-56
2021/12/20 02:54:07;;;;;;;4.05;2.30;;;;;;;;;;7393550;19;20483;-60
2021/12/20 02:56:36;;;;;;;2.97;2.03;;;;;;;;;;7390034;19;20011;-61
2021/12/20 02:59:05;;;;;;;2.90;2.15;;;;;;;;;;7391232;19;20038;-55
2021/12/20 03:01:34;;;;;;;5.22;2.10;;;;;;;;;;7391379;19;20034;-59
2021/12/20 03:04:03;;;;;;;4.97;2.10;;;;;;;;;;7390923;19;20479;-56
2021/12/20 03:06:39;;;;;;;4.10;2.50;;;;;;;;;;7391058;19;20050;-55
2021/12/20 03:09:11;;;;;;;3.63;2.35;;;;;;;;;;7390864;19;20006;-57
2021/12/20 03:11:39;;;;;;;3.45;2.55;;;;;;;;;;7391020;19;20007;-59
2021/12/20 03:14:19;;;;;;;3.22;2.38;;;;;;;;;;7391006;19;20041;-55
2021/12/20 03:16:47;;;;;;;3.67;2.65;;;;;;;;;;7390465;19;20617;-57
2021/12/20 03:19:14;;;;;;;8.10;2.40;;;;;;;;;;7394685;19;20013;-56
2021/12/20 03:21:42;;;;;;;10.02;2.53;;;;;;;;;;7398718;19;20039;-58
2021/12/20 03:24:09;;;;;;;22.15;4.93;;;;;;;;;;7398863;19;20015;-50
2021/12/20 03:26:37;;;;;;;3.85;1.90;;;;;;;;;;7396306;19;20094;-55
2021/12/20 03:29:05;;;;;;;4.00;2.55;;;;;;;;;;7397589;19;20487;-51
2021/12/20 03:31:34;;;;;;;5.53;2.78;;;;;;;;;;7398040;19;20015;-53
2021/12/20 03:34:02;;;;;;;3.75;2.50;;;;;;;;;;7398335;19;20033;-58
2021/12/20 03:36:30;;;;;;;3.40;2.28;;;;;;;;;;7395418;19;20046;-60
2021/12/20 03:38:57;;;;;;;9.55;2.83;;;;;;;;;;7398160;19;20039;-60
2021/12/20 03:41:25;;;;;;;3.53;2.35;;;;;;;;;;7397887;19;20024;-56
2021/12/20 03:43:52;;;;;;;4.05;2.13;;;;;;;;;;7397914;19;20022;-52
2021/12/20 03:46:20;;;;;;;3.95;2.30;;;;;;;;;;7395735;19;20033;-51
2021/12/20 03:48:47;;;;;;;4.15;2.58;;;;;;;;;;7395838;19;20014;-55
2021/12/20 03:51:15;;;;;;;5.70;2.22;;;;;;;;;;7395948;19;20367;-60
2021/12/20 03:53:42;;;;;;;7.82;2.35;;;;;;;;;;7399590;19;20034;-53
2021/12/20 03:56:10;;;;;;;3.45;2.42;;;;;;;;;;7395243;19;20015;-50
2021/12/20 03:59:23;;;;;;;5.93;2.50;;;;;;;;;;7397321;19;20043;-54
2021/12/20 04:02:19;;;;;;;;;;;;;;;;;;7392263;19;20021;-54
2021/12/20 04:05:26;;;;;;;5.97;2.35;;;;;;;;;;7393776;19;20354;-59
2021/12/20 04:08:33;;;;;;;2.75;2.08;;;;;;;;;;7393641;19;20021;-53
2021/12/20 04:11:40;;;;;;;2.10;1.80;;;;;;;;;;7393556;19;20025;-55
2021/12/20 04:14:47;;;;;;;2.65;1.85;;;;;;;;;;7393176;19;20078;-54
2021/12/20 04:17:54;;;;;;;5.93;1.90;;;;;;;;;;7393621;19;20025;-59
2021/12/20 04:21:01;;;;;;;5.07;2.53;;;;;;;;;;7393697;19;20085;-50
2021/12/20 04:24:08;;;;;;;7.07;2.30;;;;;;;;;;7393109;19;20482;-55
2021/12/20 04:27:15;;;;;;;5.82;2.22;;;;;;;;;;7395155;19;20104;-55
2021/12/20 04:30:22;;;;;;;4.85;2.28;;;;;;;;;;7391799;19;20022;-57
2021/12/20 04:33:29;;;;;;;2.97;2.00;;;;;;;;;;7393383;19;20102;-55
2021/12/20 04:36:36;;;;;;;4.30;1.60;;;;;;;;;;7392594;19;20021;-53
2021/12/20 04:39:43;;;;;;;7.10;2.00;;;;;;;;;;7392556;19;20117;-56
2021/12/20 04:42:50;;;;;;;8.00;1.75;;;;;;;;;;7392785;19;20628;-54
2021/12/20 07:10:09;;;;;;;4.50;2.20;;;;;;;;;;7384815;19;20026;-51
